Wind Cave National Park, SD

3:45 PM MST on February 12, 2016 (GMT -0700)
Hay Creek Road | | Change Station
CLOSE
Current Station
Personal Weather Station
Location: Custer, SD
Elevation: 5325 ft
Nearby Weather Stations

Elev 5325 ft 43.70 °N, 103.67 °W | Updated 15 seconds ago

Light Freezing Fog
Freezing Fog
29.8 °F
Feels Like 30 °F
N
2.5
Wind Variable Wind from SE
Gusts 4.9 mph

Today
High -- | Low -- °F
--% Chance of Precip.
Yesterday
High -- | Low -- °F
Precip. -- in
Pressure 30.23 in
Visibility 0.2 miles
Clouds
Windchill 30 °F
Dew Point 28 °F
Humidity 91%
Rainfall 0.00 in
Snow Depth Not available.
6:58 AM 5:20 PM
Waxing Crescent, 24% visible
SPECI KCUT 122226Z AUTO 19009G20KT 090V320 M1/4SM FZFG VV001 M03/M04 A3023 RMK AO2 T10281044
Pressure 30.23 in
Visibility 0.2 miles
Clouds
Windchill 30 °F
Dew Point 28 °F
Humidity 91%
Rainfall 0.00 in
Snow Depth Not available.
6:58 AM 5:20 PM
Waxing Crescent, 24% visible
SPECI KCUT 122226Z AUTO 19009G20KT 090V320 M1/4SM FZFG VV001 M03/M04 A3023 RMK AO2 T10281044

10-Day Weather Forecast

Almanac

Astronomy

Feb. 12, 2016 Rise Set
Actual Time
Civil Twilight
Nautical Twilight
Astronomical Twilight
Moon
Length of Visible Light
Length of Day
Tomorrow will be .
, % of the Moon is Illuminated

Today's Extremes

State Highs State Lows

Community

WunderPhotos

Upload Photos

1,892,424 photos uploaded!

WunderBlog® & News

Nearby

Air Quality

  Air Quality AQ Index Pollutant
Not available.

Snow Depth

Station Depth Elevation

Earthquake Activity

City Distance Mag. Time & Date
Minimum magnitude displayed is 2.5.

Coastal Water Temperatures

Place Temperature

Stations

Nearby Weather Stations

Station Location Temp. Windchill Dew Point Humidity Wind Precip. Elev Updated Type
                   

Watches & Warnings

There are currently no watches in effect.